createdAt,value
2022-08-03T00:00:29.547Z,99.90
2022-08-03T00:02:56.879Z,99.90
2022-08-03T00:05:24.372Z,99.90
2022-08-03T00:07:51.737Z,99.90
2022-08-03T00:10:20.410Z,99.90
2022-08-03T00:12:47.619Z,99.90
2022-08-03T00:15:16.945Z,99.90
2022-08-03T00:17:52.569Z,99.90
2022-08-03T00:20:22.346Z,99.90
2022-08-03T00:22:50.227Z,99.90
2022-08-03T00:25:17.550Z,99.90
2022-08-03T00:27:44.772Z,99.90
2022-08-03T00:30:12.055Z,99.90
2022-08-03T00:32:44.245Z,99.90
2022-08-03T00:35:36.436Z,99.90
2022-08-03T00:38:00.117Z,99.90
2022-08-03T00:40:27.417Z,99.90
2022-08-03T00:43:04.455Z,99.90
2022-08-03T00:45:38.271Z,99.90
2022-08-03T00:48:06.496Z,99.90
2022-08-03T00:50:54.186Z,99.90
2022-08-03T00:53:21.502Z,99.90
2022-08-03T00:55:48.853Z,99.90
2022-08-03T00:58:16.455Z,99.90
2022-08-03T01:00:43.930Z,99.90
2022-08-03T01:03:12.245Z,99.90
2022-08-03T01:06:13.743Z,99.90
2022-08-03T01:08:48.908Z,99.90
2022-08-03T01:11:36.960Z,99.90
2022-08-03T01:14:38.880Z,99.90
2022-08-03T01:17:18.809Z,99.90
2022-08-03T01:20:14.060Z,99.90
2022-08-03T01:23:11.201Z,99.90
2022-08-03T01:26:15.027Z,99.90
2022-08-03T01:29:01.539Z,99.90
2022-08-03T01:32:53.365Z,99.90
2022-08-03T01:34:35.360Z,99.90
2022-08-03T01:37:03.596Z,99.90
2022-08-03T01:39:30.632Z,99.90
2022-08-03T01:42:00.191Z,99.90
2022-08-03T01:44:31.447Z,99.90
2022-08-03T01:47:00.139Z,99.90
2022-08-03T01:49:32.485Z,99.90
2022-08-03T01:52:04.867Z,99.90
2022-08-03T01:54:37.705Z,99.90
2022-08-03T01:57:05.201Z,99.90
2022-08-03T01:59:35.122Z,99.90
2022-08-03T02:02:28.442Z,99.90
2022-08-03T02:04:49.679Z,99.90
2022-08-03T02:07:17.120Z,99.90
2022-08-03T02:09:45.462Z,99.90
2022-08-03T02:12:12.991Z,99.90
2022-08-03T02:14:41.073Z,99.90
2022-08-03T02:17:08.431Z,99.90
2022-08-03T02:19:36.118Z,99.90
2022-08-03T02:22:04.205Z,99.90
2022-08-03T02:24:31.669Z,99.90
2022-08-03T02:26:59.100Z,99.90
2022-08-03T02:29:39.867Z,99.90
2022-08-03T02:32:14.758Z,99.90
2022-08-03T02:34:43.180Z,99.90
2022-08-03T02:37:10.779Z,99.90
2022-08-03T02:39:38.338Z,99.90
2022-08-03T02:42:05.893Z,99.90
2022-08-03T02:44:33.749Z,99.90
2022-08-03T02:47:11.044Z,99.90
2022-08-03T02:49:50.578Z,99.90
2022-08-03T02:52:20.975Z,99.90
2022-08-03T02:54:49.267Z,99.90
2022-08-03T02:57:16.611Z,99.90
2022-08-03T02:59:44.030Z,99.90
2022-08-03T03:02:11.430Z,99.90
2022-08-03T03:04:38.771Z,99.90
2022-08-03T03:07:26.334Z,99.90
2022-08-03T03:09:56.573Z,99.90
2022-08-03T03:12:23.937Z,99.90
2022-08-03T03:14:51.341Z,99.90
2022-08-03T03:17:19.089Z,99.90
2022-08-03T03:19:46.812Z,99.90
2022-08-03T03:22:15.518Z,99.90
2022-08-03T03:24:43.438Z,99.90
2022-08-03T03:27:10.922Z,99.90
2022-08-03T03:29:44.189Z,99.90
2022-08-03T03:32:11.465Z,99.90
2022-08-03T03:34:38.724Z,99.90
2022-08-03T03:37:06.423Z,99.90
2022-08-03T03:39:33.688Z,99.90
2022-08-03T03:42:01.417Z,99.90
2022-08-03T03:44:31.665Z,99.90
2022-08-03T03:46:59.134Z,99.90
2022-08-03T03:49:26.988Z,99.90
2022-08-03T03:51:55.326Z,99.90
2022-08-03T03:54:22.630Z,99.90
2022-08-03T03:56:53.103Z,99.90
2022-08-03T03:59:20.449Z,99.90
2022-08-03T04:01:48.359Z,99.90
2022-08-03T04:04:45.104Z,99.90
2022-08-03T04:07:31.385Z,99.90
2022-08-03T04:10:17.827Z,99.90
2022-08-03T04:12:50.699Z,99.90
2022-08-03T04:15:20.233Z,99.90
2022-08-03T04:17:47.821Z,99.90
2022-08-03T04:20:15.391Z,99.90
2022-08-03T04:22:42.645Z,99.90
2022-08-03T04:25:10.256Z,99.90
2022-08-03T04:27:39.496Z,99.90
2022-08-03T04:30:07.528Z,99.90
2022-08-03T04:32:35.465Z,99.90
2022-08-03T04:35:03.098Z,99.90
2022-08-03T04:37:39.980Z,99.90
2022-08-03T04:40:10.001Z,99.90
2022-08-03T04:42:38.022Z,99.90
2022-08-03T04:45:05.933Z,99.90
2022-08-03T04:47:33.815Z,99.90
2022-08-03T04:50:08.066Z,99.90
2022-08-03T04:52:37.897Z,99.90
2022-08-03T04:55:05.550Z,99.90
2022-08-03T04:57:32.879Z,99.90
2022-08-03T05:00:02.938Z,99.90
2022-08-03T05:02:31.609Z,99.90
2022-08-03T05:04:59.256Z,99.90
2022-08-03T05:07:26.574Z,99.90
2022-08-03T05:10:04.619Z,99.90
2022-08-03T05:12:42.656Z,99.90
2022-08-03T05:15:10.709Z,99.90
2022-08-03T05:17:38.087Z,99.90
2022-08-03T05:20:06.123Z,99.90
2022-08-03T05:22:33.771Z,99.90
2022-08-03T05:25:02.188Z,99.90
2022-08-03T05:27:29.552Z,99.90
2022-08-03T05:29:57.285Z,99.90
2022-08-03T05:32:44.699Z,99.90
2022-08-03T05:36:01.565Z,99.90
2022-08-03T05:37:59.472Z,99.90
2022-08-03T05:40:26.925Z,99.90
2022-08-03T05:42:54.333Z,99.90
2022-08-03T05:45:24.260Z,99.90
2022-08-03T05:47:55.360Z,99.90
2022-08-03T05:50:22.776Z,99.90
2022-08-03T05:52:50.299Z,99.90
2022-08-03T05:55:18.064Z,99.90
2022-08-03T05:57:46.887Z,99.90
2022-08-03T06:00:17.469Z,99.90
2022-08-03T06:02:46.402Z,99.90
2022-08-03T06:05:13.848Z,99.90
2022-08-03T06:07:41.389Z,99.90
2022-08-03T06:10:36.561Z,99.90
2022-08-03T06:12:56.570Z,99.90
2022-08-03T06:15:24.016Z,99.90
2022-08-03T06:17:51.715Z,99.90
2022-08-03T06:20:20.092Z,99.90
2022-08-03T06:23:00.359Z,99.90
2022-08-03T06:25:29.276Z,99.90
2022-08-03T06:27:56.786Z,99.90
2022-08-03T06:30:24.257Z,99.90
2022-08-03T06:32:52.512Z,99.90
2022-08-03T06:35:20.141Z,99.90
2022-08-03T06:37:51.481Z,99.90
2022-08-03T06:40:21.651Z,99.90
2022-08-03T06:42:49.595Z,99.90
2022-08-03T06:45:17.908Z,99.90
2022-08-03T06:47:45.463Z,99.90
2022-08-03T06:50:17.902Z,99.90
2022-08-03T06:52:46.731Z,99.90
2022-08-03T06:55:14.171Z,99.90
2022-08-03T06:57:41.527Z,99.90
2022-08-03T07:00:12.479Z,99.90
2022-08-03T07:02:40.557Z,99.90
2022-08-03T07:05:08.945Z,99.90
2022-08-03T07:07:36.592Z,99.90
2022-08-03T07:10:04.666Z,99.90
2022-08-03T07:12:32.059Z,99.90
2022-08-03T07:15:01.657Z,99.90
2022-08-03T07:17:31.370Z,99.90
2022-08-03T07:19:59.217Z,99.90
2022-08-03T07:22:26.887Z,99.90
2022-08-03T07:24:54.442Z,99.70
2022-08-03T07:27:21.964Z,99.80
2022-08-03T07:29:49.713Z,98.00
2022-08-03T07:32:17.325Z,98.20
2022-08-03T07:34:45.240Z,98.90
2022-08-03T07:37:12.639Z,99.90
2022-08-03T07:39:40.134Z,99.10
2022-08-03T07:42:07.690Z,97.50
2022-08-03T07:44:35.127Z,97.30
2022-08-03T07:47:03.292Z,97.20
2022-08-03T07:49:30.902Z,97.00
2022-08-03T07:52:16.953Z,97.20
2022-08-03T07:54:44.562Z,97.60
2022-08-03T07:57:12.017Z,97.80
2022-08-03T08:00:01.408Z,98.60
2022-08-03T08:02:28.203Z,97.50
2022-08-03T08:04:55.607Z,97.90
2022-08-03T08:07:23.109Z,96.70
2022-08-03T08:09:50.445Z,97.80
2022-08-03T08:12:18.143Z,97.60
2022-08-03T08:14:48.869Z,96.50
2022-08-03T08:17:16.340Z,95.60
2022-08-03T08:19:51.295Z,97.20
2022-08-03T08:22:29.754Z,96.20
2022-08-03T08:24:59.675Z,96.70
2022-08-03T08:27:29.082Z,96.60
2022-08-03T08:30:19.652Z,95.40
2022-08-03T08:32:47.818Z,95.70
2022-08-03T08:35:15.662Z,95.70
2022-08-03T08:37:43.828Z,96.60
2022-08-03T08:40:21.181Z,96.60
2022-08-03T08:42:58.045Z,97.50
2022-08-03T08:45:26.318Z,95.50
2022-08-03T08:47:56.926Z,95.10
2022-08-03T08:50:28.366Z,94.60
2022-08-03T08:52:56.138Z,94.20
2022-08-03T08:55:24.185Z,93.80
2022-08-03T08:57:55.944Z,95.50
2022-08-03T09:00:23.567Z,93.90
2022-08-03T09:02:51.087Z,92.80
2022-08-03T09:05:22.531Z,93.90
2022-08-03T09:07:59.018Z,93.80
2022-08-03T09:10:26.424Z,93.60
2022-08-03T09:12:53.892Z,94.00
2022-08-03T09:15:25.977Z,91.10
2022-08-03T09:17:55.478Z,91.20
2022-08-03T09:20:23.683Z,91.30
2022-08-03T09:23:09.050Z,88.70
2022-08-03T09:25:50.141Z,88.60
2022-08-03T09:29:00.004Z,90.30
2022-08-03T09:31:05.983Z,87.40
2022-08-03T09:33:35.892Z,89.20
2022-08-03T09:36:03.886Z,89.80
2022-08-03T09:38:31.426Z,84.60
2022-08-03T09:41:01.008Z,84.50
2022-08-03T09:43:29.076Z,85.50
2022-08-03T09:46:06.154Z,85.00
2022-08-03T09:48:37.620Z,85.10
2022-08-03T09:51:13.056Z,84.70
2022-08-03T09:53:59.143Z,82.50
2022-08-03T09:56:47.881Z,85.00
2022-08-03T09:59:24.444Z,85.20
2022-08-03T10:01:53.736Z,83.80
2022-08-03T10:04:21.547Z,78.10
2022-08-03T10:07:10.567Z,79.60
2022-08-03T10:09:38.348Z,79.40
2022-08-03T10:12:10.223Z,79.00
2022-08-03T10:14:42.286Z,79.10
2022-08-03T10:17:12.920Z,79.60
2022-08-03T10:19:41.822Z,81.00
2022-08-03T10:22:30.828Z,76.30
2022-08-03T10:25:04.090Z,75.10
2022-08-03T10:27:39.857Z,75.60
2022-08-03T10:30:09.010Z,75.70
2022-08-03T10:32:50.028Z,75.30
2022-08-03T10:35:21.437Z,77.10
2022-08-03T10:37:58.980Z,76.70
2022-08-03T10:43:23.450Z,74.30
2022-08-03T10:45:50.942Z,71.50
2022-08-03T10:48:19.403Z,74.40
2022-08-03T10:50:47.676Z,74.60
2022-08-03T10:53:15.344Z,74.60
2022-08-03T10:56:05.602Z,76.00
2022-08-03T10:58:53.311Z,70.40
2022-08-03T11:01:58.841Z,74.10
2022-08-03T11:04:30.208Z,73.50
2022-08-03T11:07:19.504Z,76.10
2022-08-03T11:09:48.813Z,76.40
2022-08-03T11:12:32.901Z,76.90
2022-08-03T11:15:09.006Z,76.40
2022-08-03T11:17:46.137Z,75.50
2022-08-03T11:20:59.761Z,75.70
2022-08-03T11:24:05.099Z,71.50
2022-08-03T11:26:34.487Z,74.20
2022-08-03T11:29:29.952Z,71.60
2022-08-03T11:31:57.898Z,71.30
2022-08-03T11:34:25.659Z,70.30
2022-08-03T11:37:27.577Z,72.10
2022-08-03T11:39:58.837Z,73.30
2022-08-03T11:42:27.734Z,70.60
2022-08-03T11:44:59.478Z,69.10
2022-08-03T11:47:28.433Z,72.20
2022-08-03T11:50:02.384Z,71.30
2022-08-03T11:52:40.302Z,71.90
2022-08-03T11:55:11.964Z,63.30
2022-08-03T11:59:10.883Z,60.40
2022-08-03T12:00:28.268Z,59.50
2022-08-03T12:03:09.257Z,65.80
2022-08-03T12:05:41.512Z,68.30
2022-08-03T12:08:09.999Z,69.70
2022-08-03T12:10:38.207Z,69.50
2022-08-03T12:14:43.925Z,67.80
2022-08-03T12:15:59.514Z,65.90
2022-08-03T12:18:27.088Z,66.80
2022-08-03T12:20:56.119Z,65.10
2022-08-03T12:23:23.615Z,66.00
2022-08-03T12:25:51.019Z,66.40
2022-08-03T12:28:36.114Z,66.50
2022-08-03T12:31:09.924Z,65.50
2022-08-03T12:34:03.769Z,66.50
2022-08-03T12:36:33.829Z,62.10
2022-08-03T12:39:09.123Z,60.80
2022-08-03T12:41:38.880Z,58.90
2022-08-03T12:44:07.357Z,58.50
2022-08-03T12:46:36.461Z,57.40
2022-08-03T12:49:15.803Z,57.10
2022-08-03T12:51:43.109Z,58.40
2022-08-03T12:54:17.837Z,60.80
2022-08-03T12:57:01.548Z,61.70
2022-08-03T12:59:49.858Z,61.00
2022-08-03T13:02:27.942Z,61.20
2022-08-03T13:04:55.540Z,59.60
2022-08-03T13:07:23.386Z,59.80
2022-08-03T13:09:55.334Z,60.00
2022-08-03T13:12:27.427Z,60.00
2022-08-03T13:15:00.036Z,59.40
2022-08-03T13:17:27.839Z,57.60
2022-08-03T13:19:55.271Z,58.70
2022-08-03T13:22:24.157Z,58.30
2022-08-03T13:24:53.052Z,58.10
2022-08-03T13:27:59.422Z,54.70
2022-08-03T13:30:09.107Z,55.10
2022-08-03T13:32:36.588Z,53.90
2022-08-03T13:35:04.568Z,54.00
2022-08-03T13:37:34.893Z,55.10
2022-08-03T13:40:04.556Z,55.30
2022-08-03T13:42:33.854Z,55.80
2022-08-03T13:45:01.571Z,54.70
2022-08-03T13:47:29.063Z,54.00
2022-08-03T13:50:00.785Z,53.30
2022-08-03T13:52:31.310Z,53.80
2022-08-03T13:54:58.990Z,52.10
2022-08-03T13:58:05.335Z,53.10
2022-08-03T14:00:17.693Z,53.80
2022-08-03T14:03:06.574Z,53.60
2022-08-03T14:05:35.913Z,54.10
2022-08-03T14:08:05.374Z,53.60
2022-08-03T14:10:36.964Z,53.70
2022-08-03T14:13:04.858Z,55.70
2022-08-03T14:15:32.209Z,54.10
2022-08-03T14:18:04.885Z,54.00
2022-08-03T14:20:46.931Z,51.30
2022-08-03T14:23:17.901Z,52.00
2022-08-03T14:25:51.911Z,53.90
2022-08-03T14:28:24.344Z,50.90
2022-08-03T14:30:56.302Z,50.40
2022-08-03T14:33:23.922Z,50.00
2022-08-03T14:35:51.491Z,50.70
2022-08-03T14:38:18.946Z,50.10
2022-08-03T14:40:46.626Z,50.30
2022-08-03T14:43:14.328Z,50.00
2022-08-03T14:45:41.835Z,48.80
2022-08-03T14:50:28.893Z,49.60
2022-08-03T14:50:57.058Z,49.50
2022-08-03T14:53:24.680Z,49.80
2022-08-03T14:55:53.740Z,51.00
2022-08-03T14:58:22.333Z,52.70
2022-08-03T15:00:50.531Z,52.10
2022-08-03T15:03:20.730Z,52.40
2022-08-03T15:05:48.274Z,50.30
2022-08-03T15:08:16.106Z,51.00
2022-08-03T15:10:44.769Z,50.60
2022-08-03T15:13:13.583Z,50.00
2022-08-03T15:15:41.314Z,49.60
2022-08-03T15:18:08.830Z,50.10
2022-08-03T15:20:44.394Z,50.50
2022-08-03T15:23:12.808Z,49.10
2022-08-03T15:26:28.842Z,47.80
2022-08-03T15:28:27.784Z,48.70
2022-08-03T15:30:55.163Z,48.50
2022-08-03T15:33:22.597Z,48.90
2022-08-03T15:35:50.130Z,48.70
2022-08-03T15:38:17.895Z,48.80
2022-08-03T15:40:45.824Z,49.50
2022-08-03T15:43:13.215Z,49.70
2022-08-03T15:45:42.054Z,49.80
2022-08-03T15:48:09.511Z,49.00
2022-08-03T15:50:36.829Z,49.10
2022-08-03T15:53:04.397Z,49.80
2022-08-03T15:55:32.087Z,48.90
2022-08-03T15:59:09.526Z,47.90
2022-08-03T16:00:46.813Z,48.10
2022-08-03T16:03:14.676Z,48.80
2022-08-03T16:05:42.405Z,48.30
2022-08-03T16:08:13.692Z,49.40
2022-08-03T16:10:41.696Z,50.60
2022-08-03T16:13:09.273Z,52.10
2022-08-03T16:15:38.490Z,52.30
2022-08-03T16:18:09.398Z,52.40
2022-08-03T16:20:36.696Z,52.40
2022-08-03T16:23:10.643Z,53.90
2022-08-03T16:25:42.989Z,52.70
2022-08-03T16:28:14.634Z,53.40
2022-08-03T16:30:43.279Z,53.30
2022-08-03T16:33:11.098Z,54.10
2022-08-03T16:35:38.604Z,53.70
2022-08-03T16:38:09.755Z,53.50
2022-08-03T16:40:38.548Z,55.10
2022-08-03T16:43:18.526Z,55.50
2022-08-03T16:45:47.356Z,54.10
2022-08-03T16:48:15.601Z,54.00
2022-08-03T16:50:43.044Z,53.40
2022-08-03T16:53:15.565Z,54.60
2022-08-03T16:55:53.872Z,56.10
2022-08-03T16:58:41.297Z,56.90
2022-08-03T17:01:21.559Z,56.70
2022-08-03T17:04:02.251Z,58.10
2022-08-03T17:06:37.753Z,58.80
2022-08-03T17:09:08.893Z,59.00
2022-08-03T17:11:43.064Z,60.70
2022-08-03T17:14:12.850Z,62.20
2022-08-03T17:16:51.882Z,62.70
2022-08-03T17:19:23.003Z,64.20
2022-08-03T17:22:04.370Z,62.80
2022-08-03T17:24:33.053Z,58.30
2022-08-03T17:27:08.833Z,59.10
2022-08-03T17:29:38.791Z,58.30
2022-08-03T17:32:18.099Z,58.10
2022-08-03T17:34:49.249Z,66.80
2022-08-03T17:37:49.670Z,70.20
2022-08-03T17:40:05.053Z,76.80
2022-08-03T17:42:32.710Z,81.40
2022-08-03T17:45:02.191Z,85.80
2022-08-03T17:47:41.813Z,89.30
2022-08-03T17:50:24.108Z,90.80
2022-08-03T17:52:57.647Z,92.10
2022-08-03T17:55:56.146Z,93.10
2022-08-03T17:58:37.444Z,94.00
2022-08-03T18:02:00.420Z,94.40
2022-08-03T18:04:13.989Z,94.10
2022-08-03T18:06:56.112Z,95.40
2022-08-03T18:10:04.201Z,96.70
2022-08-03T18:12:15.509Z,96.80
2022-08-03T18:14:57.162Z,96.70
2022-08-03T18:17:55.655Z,98.30
2022-08-03T18:20:34.483Z,99.00
2022-08-03T18:23:09.316Z,99.20
2022-08-03T18:25:45.326Z,99.40
2022-08-03T18:28:18.667Z,99.40
2022-08-03T18:30:54.437Z,99.90
2022-08-03T18:34:18.819Z,99.90
2022-08-03T18:36:29.448Z,99.90
2022-08-03T18:38:59.503Z,99.90
2022-08-03T18:41:33.655Z,99.90
2022-08-03T18:47:16.079Z,99.90
2022-08-03T18:50:19.157Z,99.90
2022-08-03T18:53:03.417Z,99.90
2022-08-03T18:55:33.440Z,99.90
2022-08-03T18:58:15.996Z,99.90
2022-08-03T19:01:58.558Z,99.90
2022-08-03T19:04:24.377Z,99.90
2022-08-03T19:06:51.855Z,99.90
2022-08-03T19:09:24.116Z,99.90
2022-08-03T19:12:12.718Z,99.90
2022-08-03T19:14:53.715Z,99.90
2022-08-03T19:17:21.803Z,99.90
2022-08-03T19:19:51.358Z,99.90
2022-08-03T19:22:23.016Z,99.90
2022-08-03T19:24:50.764Z,99.90
2022-08-03T19:27:20.026Z,99.90
2022-08-03T19:29:59.163Z,99.90
2022-08-03T19:32:29.618Z,99.90
2022-08-03T19:34:57.965Z,99.90
2022-08-03T19:37:38.315Z,99.90
2022-08-03T19:40:10.748Z,99.90
2022-08-03T19:42:41.676Z,99.90
2022-08-03T19:45:11.223Z,99.90
2022-08-03T19:47:57.306Z,99.90
2022-08-03T19:50:25.293Z,99.90
2022-08-03T19:52:52.747Z,99.90
2022-08-03T19:55:20.245Z,99.90
2022-08-03T19:57:49.158Z,99.90
2022-08-03T20:00:19.806Z,99.90
2022-08-03T20:02:47.818Z,99.90
2022-08-03T20:05:18.665Z,99.90
2022-08-03T20:07:48.130Z,99.90
2022-08-03T20:10:17.234Z,99.90
2022-08-03T20:12:45.376Z,99.90
2022-08-03T20:15:13.197Z,99.90
2022-08-03T20:17:57.143Z,99.90
2022-08-03T20:20:31.817Z,99.90
2022-08-03T20:23:00.553Z,99.90
2022-08-03T20:25:38.125Z,99.90
2022-08-03T20:28:13.494Z,99.90
2022-08-03T20:30:43.217Z,99.90
2022-08-03T20:33:11.335Z,99.90
2022-08-03T20:35:41.905Z,99.90
2022-08-03T20:38:09.688Z,99.90
2022-08-03T20:40:38.104Z,99.90
2022-08-03T20:43:09.571Z,99.90
2022-08-03T20:45:59.233Z,99.90
2022-08-03T20:48:27.201Z,99.90
2022-08-03T20:50:55.776Z,99.90
2022-08-03T20:53:57.320Z,99.90
2022-08-03T20:56:10.625Z,99.90
2022-08-03T20:58:50.434Z,99.90
2022-08-03T21:01:27.073Z,99.90
2022-08-03T21:03:55.884Z,99.90
2022-08-03T21:06:27.362Z,99.90
2022-08-03T21:09:03.995Z,99.90
2022-08-03T21:11:45.242Z,99.90
2022-08-03T21:12:59.026Z,99.90
2022-08-03T21:14:26.630Z,99.90
2022-08-03T21:16:53.989Z,99.90
2022-08-03T21:19:22.289Z,99.90
2022-08-03T21:21:50.912Z,99.90
2022-08-03T21:24:18.246Z,99.90
2022-08-03T21:26:46.394Z,99.90
2022-08-03T21:29:14.599Z,99.90
2022-08-03T21:31:42.221Z,99.90
2022-08-03T21:34:09.674Z,99.90
2022-08-03T21:36:37.962Z,99.90
2022-08-03T21:39:07.488Z,99.90
2022-08-03T21:41:35.508Z,99.90
2022-08-03T21:44:03.306Z,99.90
2022-08-03T21:46:36.062Z,99.90
2022-08-03T21:50:07.622Z,99.90
2022-08-03T21:51:53.125Z,99.90
2022-08-03T21:54:21.866Z,99.90
2022-08-03T21:56:49.243Z,99.90
2022-08-03T21:59:20.496Z,99.90
2022-08-03T22:01:49.089Z,99.90
2022-08-03T22:04:38.752Z,99.90
2022-08-03T22:07:06.917Z,99.90
2022-08-03T22:09:35.694Z,99.90
2022-08-03T22:12:03.343Z,99.90
2022-08-03T22:14:32.733Z,99.90
2022-08-03T22:17:00.670Z,99.90
2022-08-03T22:19:30.972Z,99.90
2022-08-03T22:21:58.632Z,99.90
2022-08-03T22:24:28.691Z,99.90
2022-08-03T22:27:14.788Z,99.90
2022-08-03T22:29:42.831Z,99.90
2022-08-03T22:32:10.149Z,99.90
2022-08-03T22:34:37.877Z,99.90
2022-08-03T22:37:05.326Z,99.90
2022-08-03T22:39:32.997Z,99.90
2022-08-03T22:42:00.958Z,99.90
2022-08-03T22:44:28.523Z,99.90
2022-08-03T22:46:56.373Z,99.90
2022-08-03T22:49:23.969Z,99.90
2022-08-03T22:51:54.368Z,99.90
2022-08-03T22:54:21.979Z,99.90
2022-08-03T22:56:50.305Z,99.90
2022-08-03T22:59:40.935Z,99.90
2022-08-03T23:02:20.498Z,99.90
2022-08-03T23:04:55.457Z,99.90
2022-08-03T23:07:36.869Z,99.90
2022-08-03T23:10:09.300Z,99.90
2022-08-03T23:12:38.608Z,99.90
2022-08-03T23:15:07.705Z,99.90
2022-08-03T23:17:35.223Z,99.90
2022-08-03T23:20:22.535Z,99.90
2022-08-03T23:22:54.383Z,99.90
2022-08-03T23:25:22.172Z,99.90
2022-08-03T23:28:05.117Z,99.90
2022-08-03T23:30:35.022Z,99.90
2022-08-03T23:33:02.265Z,99.90
2022-08-03T23:36:28.573Z,99.90
2022-08-03T23:38:36.705Z,99.90
2022-08-03T23:41:04.730Z,99.90
2022-08-03T23:43:45.078Z,99.90
2022-08-03T23:46:20.141Z,99.90
2022-08-03T23:48:47.517Z,99.90
2022-08-03T23:51:32.553Z,99.90
2022-08-03T23:54:24.973Z,99.90
2022-08-03T23:56:57.927Z,99.90
2022-08-03T23:59:40.177Z,99.90
